Time;durP1;ratioP1;P1;durP2;ratioP2;P2;SDS_P1;SDS_P2;PMS_P1;PMS_P2;Temp;Humidity;BMP_temperature;BMP_pressure;BME280_temperature;BME280_humidity;BME280_pressure;Samples;Min_cycle;Max_cycle;Signal;HPM_P1;HPM_P2
2023/05/28 00:00:32;;;;;;;0.90;0.70;;;17.20;59.10;;;;;;5046335;28;20017;-64
2023/05/28 00:02:59;;;;;;;5.05;1.27;;;17.20;59.20;;;;;;5043330;28;20049;-64
2023/05/28 00:05:25;;;;;;;1.58;1.20;;;17.10;59.30;;;;;;5038647;28;20036;-64
2023/05/28 00:07:51;;;;;;;2.53;1.50;;;17.10;59.50;;;;;;5031828;28;20032;-66
2023/05/28 00:10:16;;;;;;;2.40;1.38;;;17.00;59.70;;;;;;5029178;28;20361;-64
2023/05/28 00:12:43;;;;;;;3.83;1.40;;;17.00;60.00;;;;;;5046125;28;20463;-65
2023/05/28 00:15:09;;;;;;;3.55;1.20;;;17.00;60.90;;;;;;5033590;28;20029;-64
2023/05/28 00:17:35;;;;;;;2.97;1.40;;;16.90;60.50;;;;;;5035208;28;20028;-64
2023/05/28 00:20:01;;;;;;;3.53;1.75;;;16.90;60.90;;;;;;5031179;28;20026;-64
2023/05/28 00:22:26;;;;;;;2.70;1.35;;;16.90;61.80;;;;;;5033402;28;20117;-64
2023/05/28 00:24:52;;;;;;;3.00;1.92;;;16.90;61.40;;;;;;5030248;28;20079;-64
2023/05/28 00:27:17;;;;;;;3.00;1.70;;;16.80;61.90;;;;;;5030305;28;20028;-64
2023/05/28 00:29:43;;;;;;;5.18;1.63;;;16.80;62.20;;;;;;5037554;28;20087;-64
2023/05/28 00:32:09;;;;;;;3.53;1.40;;;16.70;62.40;;;;;;5043887;28;20033;-64
2023/05/28 00:34:35;;;;;;;2.33;1.30;;;16.70;63.00;;;;;;5039059;28;20060;-64
2023/05/28 00:37:01;;;;;;;6.28;2.03;;;16.70;63.30;;;;;;5038145;28;20033;-65
2023/05/28 00:39:26;;;;;;;4.03;1.50;;;16.70;63.50;;;;;;5039603;28;20068;-64
2023/05/28 00:42:03;;;;;;;4.45;1.75;;;16.70;63.60;;;;;;5039602;28;20104;-64
2023/05/28 00:44:32;;;;;;;1.63;1.38;;;16.70;63.50;;;;;;5028701;28;20515;-64
2023/05/28 00:46:59;;;;;;;1.63;0.95;;;16.70;63.70;;;;;;5033383;28;20266;-64
2023/05/28 00:49:25;;;;;;;2.63;1.02;;;16.70;63.90;;;;;;5030033;28;20025;-64
2023/05/28 00:51:51;;;;;;;2.75;1.48;;;16.70;63.90;;;;;;5031682;28;20025;-64
2023/05/28 00:54:17;;;;;;;3.42;1.92;;;16.70;64.20;;;;;;5037018;28;20384;-64
2023/05/28 00:56:46;;;;;;;4.75;2.05;;;16.70;64.60;;;;;;5037272;28;20033;-64
2023/05/28 00:59:12;;;;;;;5.55;1.90;;;16.60;64.90;;;;;;5030142;28;20040;-64
2023/05/28 01:01:39;;;;;;;3.35;1.55;;;16.50;65.10;;;;;;5028212;28;20553;-63
2023/05/28 01:04:05;;;;;;;2.28;1.70;;;16.50;65.60;;;;;;5032180;28;20029;-64
2023/05/28 01:06:31;;;;;;;7.15;2.00;;;16.50;65.80;;;;;;5024018;28;20041;-64
2023/05/28 01:08:57;;;;;;;3.97;1.83;;;16.50;66.00;;;;;;5037097;28;20108;-64
2023/05/28 01:11:24;;;;;;;4.20;1.33;;;16.40;66.20;;;;;;5035286;28;20032;-64
2023/05/28 01:13:50;;;;;;;5.15;1.95;;;16.40;66.40;;;;;;5035769;28;20076;-64
2023/05/28 01:16:16;;;;;;;3.22;1.75;;;16.40;66.80;;;;;;5032243;28;20362;-65
2023/05/28 01:18:44;;;;;;;4.20;1.42;;;16.30;66.90;;;;;;5037075;28;20079;-64
2023/05/28 01:21:11;;;;;;;3.47;1.73;;;16.20;66.90;;;;;;5033391;28;20396;-65
2023/05/28 01:23:47;;;;;;;4.50;1.80;;;16.20;67.10;;;;;;5032861;28;20531;-65
2023/05/28 01:26:14;;;;;;;5.57;1.30;;;16.20;67.40;;;;;;5029907;28;20552;-65
2023/05/28 01:28:44;;;;;;;2.00;1.55;;;16.20;67.60;;;;;;5033506;28;20030;-65
2023/05/28 01:31:18;;;;;;;4.07;2.25;;;16.10;67.60;;;;;;5029995;28;20114;-65
2023/05/28 01:33:44;;;;;;;3.10;1.45;;;16.20;68.00;;;;;;5026238;28;20021;-64
2023/05/28 01:36:23;;;;;;;2.67;1.42;;;16.10;68.00;;;;;;5029781;28;21043;-64
2023/05/28 01:38:52;;;;;;;5.60;1.75;;;16.10;68.30;;;;;;5032229;28;20025;-64
2023/05/28 01:41:19;;;;;;;5.13;1.20;;;16.00;68.70;;;;;;5030724;28;20155;-65
2023/05/28 01:43:45;;;;;;;3.95;2.00;;;16.00;68.70;;;;;;5031577;28;20025;-65
2023/05/28 01:46:12;;;;;;;2.78;1.00;;;15.90;68.60;;;;;;5025163;28;20025;-65
2023/05/28 01:48:38;;;;;;;3.42;1.42;;;16.00;68.70;;;;;;5012772;28;20034;-65
2023/05/28 01:51:05;;;;;;;4.95;1.77;;;16.00;68.60;;;;;;5022490;28;20041;-64
2023/05/28 01:53:31;;;;;;;4.85;1.90;;;16.00;68.50;;;;;;5028458;28;20381;-65
2023/05/28 01:55:56;;;;;;;3.30;1.65;;;16.00;68.40;;;;;;5032480;28;20029;-64
2023/05/28 01:58:23;;;;;;;4.57;1.80;;;16.00;68.50;;;;;;5048652;28;20035;-64
2023/05/28 02:01:07;;;;;;;3.15;1.38;;;16.00;68.50;;;;;;5027982;28;20467;-64
2023/05/28 02:03:33;;;;;;;2.55;1.45;;;16.00;68.40;;;;;;5029064;28;20028;-65
2023/05/28 02:05:58;;;;;;;2.22;1.45;;;16.00;68.50;;;;;;5028746;28;20021;-65
2023/05/28 02:08:24;;;;;;;3.63;1.60;;;16.00;68.40;;;;;;5028471;28;20037;-65
2023/05/28 02:10:50;;;;;;;4.15;1.40;;;16.00;68.40;;;;;;5028320;28;20029;-64
2023/05/28 02:13:16;;;;;;;3.58;1.30;;;16.00;68.40;;;;;;5030142;28;20045;-65
2023/05/28 02:15:42;;;;;;;1.83;1.50;;;16.00;68.40;;;;;;5028123;28;20036;-65
2023/05/28 02:18:10;;;;;;;2.63;1.60;;;16.00;68.30;;;;;;5027927;28;20034;-65
2023/05/28 02:20:36;;;;;;;2.95;1.52;;;16.00;68.30;;;;;;5028441;28;20036;-65
2023/05/28 02:23:02;;;;;;;3.50;1.90;;;16.00;68.30;;;;;;5030310;28;20050;-65
2023/05/28 02:25:27;;;;;;;6.45;1.58;;;15.90;68.20;;;;;;5029312;28;20030;-64
2023/05/28 02:27:53;;;;;;;2.00;1.00;;;15.90;68.10;;;;;;5032192;28;20064;-64
2023/05/28 02:30:19;;;;;;;3.63;2.05;;;15.90;68.10;;;;;;5030561;28;20032;-64
2023/05/28 02:32:45;;;;;;;7.85;2.65;;;15.90;68.20;;;;;;5029248;28;20038;-64
2023/05/28 02:35:10;;;;;;;1.67;1.42;;;15.90;68.30;;;;;;5029065;28;20033;-64
2023/05/28 02:37:36;;;;;;;2.17;1.65;;;15.80;68.30;;;;;;5030379;28;20036;-64
2023/05/28 02:40:03;;;;;;;2.72;1.67;;;15.80;68.40;;;;;;5028477;28;20067;-64
2023/05/28 02:42:29;;;;;;;3.83;1.67;;;15.70;68.50;;;;;;5027060;28;20436;-64
2023/05/28 02:44:54;;;;;;;2.85;1.92;;;15.70;68.50;;;;;;5030306;28;20021;-64
2023/05/28 02:47:20;;;;;;;2.85;1.30;;;15.70;68.90;;;;;;5027556;28;20416;-63
2023/05/28 02:49:46;;;;;;;5.28;1.98;;;15.60;69.10;;;;;;5027772;28;20116;-64
2023/05/28 02:52:12;;;;;;;5.32;2.15;;;15.50;69.30;;;;;;5022397;28;20054;-63
2023/05/28 02:54:37;;;;;;;2.33;1.75;;;15.50;69.50;;;;;;5029159;28;20025;-63
2023/05/28 02:57:03;;;;;;;3.05;1.48;;;15.50;69.60;;;;;;5027587;28;20095;-63
2023/05/28 02:59:29;;;;;;;5.70;1.77;;;15.50;69.80;;;;;;5025481;28;20481;-62
2023/05/28 03:01:55;;;;;;;5.47;1.67;;;15.50;69.90;;;;;;5021643;28;20121;-65
2023/05/28 03:04:20;;;;;;;2.45;1.60;;;15.50;69.90;;;;;;5025889;28;20428;-65
2023/05/28 03:06:46;;;;;;;2.60;1.48;;;15.50;69.90;;;;;;5025312;28;20425;-64
2023/05/28 03:09:12;;;;;;;3.42;1.27;;;15.50;69.90;;;;;;5028551;28;20034;-64
2023/05/28 03:11:38;;;;;;;2.70;1.90;;;15.50;69.80;;;;;;5026742;28;20048;-63
2023/05/28 03:14:03;;;;;;;4.53;1.60;;;15.50;69.80;;;;;;5025904;28;20075;-63
2023/05/28 03:16:32;;;;;;;4.18;1.83;;;15.50;69.90;;;;;;5018829;28;20049;-64
2023/05/28 03:18:58;;;;;;;1.50;1.23;;;15.50;69.80;;;;;;5034078;28;20452;-64
2023/05/28 03:21:23;;;;;;;2.22;1.58;;;15.50;69.90;;;;;;5031326;28;20037;-65
2023/05/28 03:23:49;;;;;;;2.08;1.50;;;15.40;69.90;;;;;;5029178;28;20460;-63
2023/05/28 03:26:15;;;;;;;4.38;2.00;;;15.40;69.90;;;;;;5027864;28;20026;-65
2023/05/28 03:28:40;;;;;;;4.38;1.80;;;15.40;70.00;;;;;;5036574;28;20029;-65
2023/05/28 03:31:06;;;;;;;3.28;1.85;;;15.30;70.00;;;;;;5027704;28;20099;-66
2023/05/28 03:33:32;;;;;;;2.28;1.60;;;15.30;70.10;;;;;;5028589;28;20116;-65
2023/05/28 03:35:57;;;;;;;5.90;2.63;;;15.30;70.30;;;;;;5028665;28;20412;-64
2023/05/28 03:38:23;;;;;;;6.20;2.03;;;15.30;70.50;;;;;;5023289;28;20026;-64
2023/05/28 03:40:49;;;;;;;4.78;2.08;;;15.20;70.60;;;;;;5012860;28;20036;-64
2023/05/28 03:43:15;;;;;;;3.88;1.75;;;15.20;70.90;;;;;;5033674;28;20026;-63
2023/05/28 03:45:41;;;;;;;3.60;1.48;;;15.20;71.10;;;;;;5025378;28;20037;-64
2023/05/28 03:48:10;;;;;;;2.05;1.30;;;15.20;71.10;;;;;;5027335;28;20029;-65
2023/05/28 03:50:36;;;;;;;3.38;1.55;;;15.20;71.10;;;;;;5026563;28;20021;-64
2023/05/28 03:53:02;;;;;;;4.30;2.40;;;15.20;71.00;;;;;;5028928;28;20388;-65
2023/05/28 03:55:28;;;;;;;4.22;1.50;;;15.20;71.10;;;;;;5032729;28;20568;-64
2023/05/28 03:57:54;;;;;;;6.93;1.95;;;15.20;71.10;;;;;;5031648;28;20060;-65
2023/05/28 04:00:20;;;;;;;3.50;1.55;;;15.20;71.30;;;;;;5031544;28;20053;-65
2023/05/28 04:02:46;;;;;;;2.85;2.05;;;15.20;71.20;;;;;;5031259;28;20115;-65
2023/05/28 04:05:11;;;;;;;3.33;1.58;;;15.30;71.30;;;;;;5030251;28;20171;-65
2023/05/28 04:07:37;;;;;;;3.38;1.80;;;15.30;71.30;;;;;;5027757;28;20120;-65
2023/05/28 04:10:04;;;;;;;4.30;1.48;;;15.30;71.20;;;;;;5036616;28;20053;-65
2023/05/28 04:12:29;;;;;;;5.22;1.92;;;15.40;71.30;;;;;;5033569;28;20581;-64
2023/05/28 04:14:56;;;;;;;4.30;1.90;;;15.40;71.30;;;;;;5036568;28;20105;-64
2023/05/28 04:17:22;;;;;;;8.68;1.77;;;15.40;71.20;;;;;;5030041;28;20037;-63
2023/05/28 04:19:48;;;;;;;4.70;1.88;;;15.50;71.20;;;;;;5034291;28;20037;-63
2023/05/28 04:22:13;;;;;;;5.30;1.85;;;15.50;71.10;;;;;;5039745;28;20044;-63
2023/05/28 04:24:39;;;;;;;4.28;2.22;;;15.50;71.00;;;;;;5031893;28;20076;-65
2023/05/28 04:27:06;;;;;;;2.72;1.52;;;15.60;71.00;;;;;;5027883;28;20038;-64
2023/05/28 04:29:33;;;;;;;2.60;1.58;;;15.60;70.90;;;;;;5037404;28;20079;-64
2023/05/28 04:31:58;;;;;;;5.00;2.00;;;15.70;70.90;;;;;;5033194;28;20076;-64
2023/05/28 04:34:25;;;;;;;3.95;1.38;;;15.70;70.80;;;;;;5030778;28;20452;-65
2023/05/28 04:36:56;;;;;;;4.63;1.98;;;15.80;70.70;;;;;;5035520;28;20175;-65
2023/05/28 04:39:22;;;;;;;3.42;1.40;;;15.80;70.70;;;;;;5033328;28;20069;-65
2023/05/28 04:41:49;;;;;;;5.03;1.98;;;15.80;70.70;;;;;;5032717;28;20484;-65
2023/05/28 04:44:16;;;;;;;5.57;1.90;;;15.70;70.70;;;;;;5031656;28;20053;-65
2023/05/28 04:46:43;;;;;;;3.72;1.38;;;15.60;70.80;;;;;;5032988;28;20029;-65
2023/05/28 04:49:10;;;;;;;2.78;1.92;;;15.60;70.90;;;;;;5027391;28;20116;-65
2023/05/28 04:51:40;;;;;;;4.03;1.98;;;15.60;71.10;;;;;;5030880;28;20376;-63
2023/05/28 04:54:06;;;;;;;3.60;2.22;;;15.60;71.10;;;;;;5032960;28;20103;-64
2023/05/28 04:56:32;;;;;;;7.15;1.42;;;15.50;71.30;;;;;;5032853;28;20105;-64
2023/05/28 04:58:57;;;;;;;2.25;1.58;;;15.50;71.40;;;;;;5035652;28;20471;-64
2023/05/28 05:01:24;;;;;;;3.35;1.48;;;15.40;71.30;;;;;;5028129;28;20038;-64
2023/05/28 05:03:50;;;;;;;3.50;1.83;;;15.40;71.50;;;;;;5037945;28;20025;-64
2023/05/28 05:06:16;;;;;;;3.30;1.73;;;15.40;71.60;;;;;;5033230;28;20040;-65
2023/05/28 05:08:42;;;;;;;3.33;1.98;;;15.40;71.60;;;;;;5035947;28;20025;-65
2023/05/28 05:11:08;;;;;;;2.72;1.30;;;15.40;71.50;;;;;;5037762;28;20556;-65
2023/05/28 05:13:33;;;;;;;2.78;1.70;;;15.40;71.40;;;;;;5036860;28;20286;-65
2023/05/28 05:15:59;;;;;;;2.75;1.83;;;15.50;71.50;;;;;;5022685;28;20377;-65
2023/05/28 05:18:25;;;;;;;4.93;1.77;;;15.50;71.50;;;;;;5030083;28;20037;-64
2023/05/28 05:20:51;;;;;;;5.82;2.20;;;15.60;71.60;;;;;;5028405;28;20026;-64
2023/05/28 05:23:16;;;;;;;2.45;1.35;;;15.70;71.50;;;;;;5026989;28;20048;-65
2023/05/28 05:25:43;;;;;;;5.18;1.30;;;15.70;71.50;;;;;;5028744;28;20028;-65
2023/05/28 05:28:09;;;;;;;4.32;2.05;;;15.70;71.40;;;;;;5027385;28;20033;-65
2023/05/28 05:30:35;;;;;;;4.63;2.50;;;15.80;71.40;;;;;;5035494;28;20036;-64
2023/05/28 05:33:01;;;;;;;5.43;2.47;;;15.80;71.50;;;;;;5030053;28;20029;-65
2023/05/28 05:35:27;;;;;;;3.97;1.77;;;15.80;71.20;;;;;;5032956;28;20053;-64
2023/05/28 05:37:52;;;;;;;1.92;1.67;;;15.90;71.10;;;;;;5032291;28;20029;-66
2023/05/28 05:40:18;;;;;;;3.17;1.60;;;15.90;71.10;;;;;;5035818;28;20021;-65
2023/05/28 05:42:44;;;;;;;2.63;1.50;;;16.00;71.20;;;;;;5032492;28;20097;-64
2023/05/28 05:45:10;;;;;;;3.60;1.88;;;16.00;71.00;;;;;;5023344;28;20514;-65
2023/05/28 05:47:37;;;;;;;4.50;2.30;;;16.10;70.90;;;;;;5025044;28;20500;-64
2023/05/28 05:50:04;;;;;;;4.75;1.80;;;16.20;70.70;;;;;;5031518;28;20072;-65
2023/05/28 05:52:30;;;;;;;4.32;1.85;;;16.30;70.60;;;;;;5032813;28;20025;-64
2023/05/28 05:54:56;;;;;;;5.68;2.38;;;16.40;70.50;;;;;;5028257;28;20017;-65
2023/05/28 05:57:22;;;;;;;4.65;1.80;;;16.40;70.50;;;;;;5032332;28;20317;-64
2023/05/28 05:59:47;;;;;;;2.58;1.95;;;16.40;70.40;;;;;;5029474;28;20256;-64
2023/05/28 06:02:13;;;;;;;2.13;1.30;;;16.50;70.40;;;;;;5032956;28;20024;-64
2023/05/28 06:04:39;;;;;;;3.75;2.05;;;16.60;70.40;;;;;;5031965;28;20025;-63
2023/05/28 06:07:06;;;;;;;2.13;1.55;;;16.70;70.30;;;;;;5032188;28;20503;-65
2023/05/28 06:09:33;;;;;;;1.98;1.58;;;16.80;70.20;;;;;;5030214;28;20116;-63
2023/05/28 06:11:59;;;;;;;4.07;1.50;;;16.80;70.00;;;;;;5031166;28;20017;-65
2023/05/28 06:14:27;;;;;;;2.55;1.75;;;17.00;69.90;;;;;;5030047;28;20104;-64
2023/05/28 06:16:52;;;;;;;6.35;1.50;;;17.10;69.70;;;;;;5017918;28;20104;-63
2023/05/28 06:19:18;;;;;;;2.90;1.13;;;17.20;69.40;;;;;;5028951;28;20113;-64
2023/05/28 06:21:44;;;;;;;4.68;1.52;;;17.30;69.30;;;;;;5019510;28;20048;-64
2023/05/28 06:24:10;;;;;;;2.47;1.38;;;17.50;69.10;;;;;;5018841;28;20112;-65
2023/05/28 06:26:36;;;;;;;3.55;1.42;;;17.60;68.90;;;;;;5031872;28;20506;-66
2023/05/28 06:29:02;;;;;;;1.92;1.45;;;17.60;68.60;;;;;;5028001;28;20033;-63
2023/05/28 06:31:27;;;;;;;2.25;1.70;;;17.60;68.50;;;;;;5033513;28;20048;-66
2023/05/28 06:33:54;;;;;;;2.88;1.38;;;17.60;68.60;;;;;;5029228;28;20050;-65
2023/05/28 06:36:19;;;;;;;1.63;1.45;;;17.60;68.70;;;;;;5039379;28;20037;-62
2023/05/28 06:38:45;;;;;;;8.15;2.05;;;17.50;68.80;;;;;;5029480;28;20029;-64
2023/05/28 06:41:11;;;;;;;4.15;1.33;;;17.50;68.90;;;;;;5031361;28;20090;-64
2023/05/28 06:43:38;;;;;;;4.72;2.08;;;17.50;69.20;;;;;;5031917;28;20017;-65
2023/05/28 06:46:04;;;;;;;3.50;2.00;;;17.50;69.20;;;;;;5026783;28;20038;-64
2023/05/28 06:48:29;;;;;;;1.98;1.38;;;17.50;69.20;;;;;;5030604;28;20163;-64
2023/05/28 06:50:57;;;;;;;2.15;1.40;;;17.50;69.20;;;;;;5041497;28;20067;-64
2023/05/28 06:53:22;;;;;;;4.68;1.45;;;17.50;69.10;;;;;;5032496;28;20033;-64
2023/05/28 06:55:48;;;;;;;1.70;1.17;;;17.50;69.20;;;;;;5029254;28;20508;-64
2023/05/28 06:58:13;;;;;;;3.95;1.45;;;17.60;69.10;;;;;;5021539;28;20036;-64
2023/05/28 07:00:39;;;;;;;4.28;1.38;;;17.60;69.10;;;;;;5024970;28;20043;-64
2023/05/28 07:03:06;;;;;;;2.38;1.77;;;17.60;69.00;;;;;;5023428;28;20164;-64
2023/05/28 07:05:32;;;;;;;2.78;1.77;;;17.70;69.00;;;;;;5030660;28;20021;-64
2023/05/28 07:07:59;;;;;;;3.58;1.38;;;17.80;68.90;;;;;;5029711;28;20033;-64
2023/05/28 07:10:25;;;;;;;4.68;1.73;;;18.00;68.60;;;;;;5027160;28;20040;-64
2023/05/28 07:12:50;;;;;;;2.00;1.30;;;18.20;68.10;;;;;;5021307;28;20026;-64
2023/05/28 07:15:17;;;;;;;3.80;1.05;;;18.40;67.70;;;;;;5025693;28;20381;-64
2023/05/28 07:17:42;;;;;;;1.98;1.00;;;18.60;67.30;;;;;;5030347;28;20071;-65
2023/05/28 07:20:09;;;;;;;1.83;1.00;;;18.80;66.90;;;;;;5029298;28;20442;-64
2023/05/28 07:22:35;;;;;;;1.88;1.00;;;19.00;66.50;;;;;;5035888;28;20112;-64
2023/05/28 07:25:01;;;;;;;3.00;1.85;;;19.20;66.70;;;;;;5029183;28;20088;-64
2023/05/28 07:27:26;;;;;;;2.53;1.00;;;19.30;65.70;;;;;;5030993;28;20493;-65
2023/05/28 07:29:52;;;;;;;5.00;1.58;;;19.40;65.30;;;;;;5037878;28;20025;-64
2023/05/28 07:32:18;;;;;;;1.85;0.90;;;19.60;65.00;;;;;;5026483;28;20033;-64
2023/05/28 07:34:43;;;;;;;2.03;1.30;;;19.70;64.90;;;;;;5043969;28;20039;-65
2023/05/28 07:37:09;;;;;;;1.42;0.70;;;19.90;64.40;;;;;;5032330;28;20037;-64
2023/05/28 07:39:35;;;;;;;2.15;0.98;;;19.90;64.10;;;;;;5038259;28;20033;-64
2023/05/28 07:42:00;;;;;;;1.50;0.82;;;20.00;63.90;;;;;;5035363;28;20021;-64
2023/05/28 07:44:26;;;;;;;2.42;1.10;;;20.10;63.60;;;;;;5034633;28;20120;-64
2023/05/28 07:46:52;;;;;;;1.05;0.93;;;20.20;63.00;;;;;;5034345;28;20151;-65
2023/05/28 07:49:18;;;;;;;1.17;1.02;;;20.30;62.90;;;;;;5037861;28;20438;-64
2023/05/28 07:51:44;;;;;;;3.30;1.13;;;20.40;62.60;;;;;;5025409;28;20488;-64
2023/05/28 07:54:11;;;;;;;1.20;0.85;;;20.60;62.40;;;;;;5029859;28;20021;-64
2023/05/28 07:56:36;;;;;;;3.55;1.63;;;20.70;62.00;;;;;;5029599;28;20443;-64
2023/05/28 07:59:02;;;;;;;0.75;0.60;;;20.80;61.20;;;;;;5026971;28;20025;-64
2023/05/28 08:01:28;;;;;;;1.58;1.15;;;20.80;61.00;;;;;;5023259;28;20041;-64
2023/05/28 08:03:54;;;;;;;1.17;0.80;;;20.90;60.70;;;;;;5020731;28;20035;-64
2023/05/28 08:06:21;;;;;;;1.30;1.00;;;21.00;60.20;;;;;;5024094;28;20056;-65
2023/05/28 08:08:46;;;;;;;6.85;1.40;;;21.20;59.90;;;;;;5018642;28;20069;-65
2023/05/28 08:11:14;;;;;;;3.55;0.95;;;21.30;59.50;;;;;;5018337;28;20489;-64
2023/05/28 08:13:41;;;;;;;3.13;0.90;;;21.40;59.20;;;;;;5016821;28;20101;-66
2023/05/28 08:16:09;;;;;;;3.03;1.20;;;21.60;58.70;;;;;;5024794;28;20021;-66
2023/05/28 08:18:36;;;;;;;0.90;0.70;;;21.70;58.60;;;;;;5026410;28;20080;-66
2023/05/28 08:21:07;;;;;;;3.97;0.70;;;21.80;58.30;;;;;;5013171;28;20026;-66
2023/05/28 08:23:34;;;;;;;2.20;0.80;;;21.90;58.30;;;;;;5026675;28;20061;-65
2023/05/28 08:26:03;;;;;;;1.75;1.40;;;21.90;57.90;;;;;;5032419;28;20022;-65
2023/05/28 08:28:32;;;;;;;2.13;1.67;;;22.00;57.80;;;;;;5038219;28;20100;-65
2023/05/28 08:30:58;;;;;;;1.40;0.95;;;22.00;57.20;;;;;;5037072;28;20029;-66
2023/05/28 08:33:24;;;;;;;0.98;0.90;;;22.00;57.20;;;;;;5042982;28;20387;-65
2023/05/28 08:35:49;;;;;;;3.35;0.55;;;22.10;57.20;;;;;;5034461;28;20396;-66
2023/05/28 08:38:15;;;;;;;2.05;1.27;;;22.20;57.00;;;;;;5033965;28;20022;-65
2023/05/28 08:40:46;;;;;;;4.20;1.27;;;22.30;56.80;;;;;;5031777;28;20121;-66
2023/05/28 08:43:12;;;;;;;3.07;1.00;;;22.40;55.80;;;;;;5020341;28;20029;-66
2023/05/28 08:45:38;;;;;;;1.58;0.98;;;22.40;55.40;;;;;;5026069;28;20270;-65
2023/05/28 08:48:08;;;;;;;2.10;1.30;;;22.50;55.20;;;;;;5028304;28;20404;-64
2023/05/28 08:50:40;;;;;;;1.90;0.98;;;22.60;55.20;;;;;;5041781;28;20057;-64
2023/05/28 08:53:07;;;;;;;1.30;0.70;;;22.70;55.30;;;;;;5030704;28;20032;-64
2023/05/28 08:55:34;;;;;;;5.80;1.00;;;22.70;55.10;;;;;;5043993;28;20060;-64
2023/05/28 08:58:00;;;;;;;2.25;1.38;;;22.80;55.10;;;;;;5030216;28;20029;-64
2023/05/28 09:00:27;;;;;;;3.90;1.10;;;22.90;53.90;;;;;;5041252;28;20491;-65
2023/05/28 09:02:52;;;;;;;1.48;0.88;;;22.90;54.10;;;;;;5040147;28;20021;-63
2023/05/28 09:05:18;;;;;;;2.40;1.38;;;23.00;54.00;;;;;;5032681;28;20040;-65
2023/05/28 09:07:44;;;;;;;5.88;1.05;;;23.10;54.20;;;;;;5040642;28;20396;-64
2023/05/28 09:10:11;;;;;;;1.60;0.88;;;23.20;54.20;;;;;;5037223;28;20106;-64
2023/05/28 09:12:40;;;;;;;7.00;1.15;;;23.20;53.80;;;;;;5033338;28;20021;-65
2023/05/28 09:15:07;;;;;;;1.55;1.20;;;23.40;53.90;;;;;;5034323;28;20027;-65
2023/05/28 09:17:37;;;;;;;3.63;0.82;;;23.50;53.70;;;;;;5032310;28;20026;-64
2023/05/28 09:20:12;;;;;;;2.13;1.13;;;23.60;53.60;;;;;;5033525;28;20035;-64
2023/05/28 09:22:38;;;;;;;2.05;1.00;;;23.70;53.30;;;;;;5040768;28;20044;-64
2023/05/28 09:25:07;;;;;;;1.20;0.95;;;23.80;53.10;;;;;;5035539;28;20049;-65
2023/05/28 09:27:33;;;;;;;1.70;0.98;;;23.90;53.00;;;;;;5033784;28;20112;-64
2023/05/28 09:30:07;;;;;;;1.63;0.85;;;24.00;52.80;;;;;;5034620;28;20040;-64
2023/05/28 09:32:34;;;;;;;2.50;1.48;;;24.10;52.40;;;;;;5036326;28;20490;-64
2023/05/28 09:35:00;;;;;;;2.42;0.93;;;24.20;52.20;;;;;;5031762;28;20476;-64
2023/05/28 09:37:29;;;;;;;5.78;1.33;;;24.20;50.90;;;;;;5023074;28;20126;-64
2023/05/28 09:40:09;;;;;;;2.05;1.23;;;24.10;50.90;;;;;;5027851;28;20037;-65
2023/05/28 09:42:42;;;;;;;2.28;1.00;;;24.20;51.10;;;;;;5025988;28;20025;-65
2023/05/28 09:45:11;;;;;;;3.63;1.08;;;24.30;51.20;;;;;;5024370;28;20087;-63
2023/05/28 09:47:44;;;;;;;1.00;0.85;;;24.40;51.30;;;;;;5020641;28;20025;-65
2023/05/28 09:50:10;;;;;;;3.53;0.95;;;24.60;50.60;;;;;;5020181;28;20033;-64
2023/05/28 09:52:38;;;;;;;3.92;1.27;;;24.60;50.10;;;;;;5027619;28;20027;-64
2023/05/28 09:55:07;;;;;;;3.83;1.33;;;24.70;50.10;;;;;;5029550;28;20159;-68
2023/05/28 09:57:33;;;;;;;1.90;1.35;;;24.60;49.90;;;;;;5029410;28;20025;-66
2023/05/28 10:00:14;;;;;;;3.42;1.40;;;24.60;50.30;;;;;;5025309;28;20045;-69
2023/05/28 10:02:48;;;;;;;2.22;1.17;;;24.70;50.50;;;;;;5028225;28;20033;-65
2023/05/28 10:05:16;;;;;;;1.85;0.90;;;24.70;50.40;;;;;;5021859;28;20029;-65
2023/05/28 10:07:44;;;;;;;1.55;0.80;;;24.70;50.40;;;;;;5031956;28;20637;-67
2023/05/28 10:10:12;;;;;;;5.35;2.20;;;24.50;50.20;;;;;;5023867;28;20116;-66
2023/05/28 10:12:39;;;;;;;1.98;1.17;;;24.40;50.20;;;;;;5024942;28;20035;-67
2023/05/28 10:15:07;;;;;;;2.83;1.25;;;24.30;50.70;;;;;;5024035;28;20033;-63
2023/05/28 10:17:33;;;;;;;3.78;1.40;;;24.30;51.00;;;;;;5022726;28;20040;-67
2023/05/28 10:20:00;;;;;;;1.88;1.05;;;24.30;51.20;;;;;;5023009;28;20025;-65
2023/05/28 10:22:26;;;;;;;2.53;1.10;;;24.40;51.20;;;;;;5029453;28;20554;-63
2023/05/28 10:24:52;;;;;;;4.65;1.23;;;24.40;50.90;;;;;;5028216;28;20076;-64
2023/05/28 10:27:18;;;;;;;2.10;1.15;;;24.50;51.20;;;;;;5023948;28;20476;-63
2023/05/28 10:29:48;;;;;;;1.75;1.05;;;24.50;51.30;;;;;;5027910;28;20041;-63
2023/05/28 10:32:15;;;;;;;0.98;0.85;;;24.70;51.20;;;;;;5024100;28;20037;-63
2023/05/28 10:34:41;;;;;;;2.03;0.90;;;24.90;51.10;;;;;;5026650;28;20485;-67
2023/05/28 10:37:09;;;;;;;4.30;0.82;;;25.00;50.90;;;;;;5027887;28;20033;-68
2023/05/28 10:39:47;;;;;;;1.17;0.70;;;25.10;50.60;;;;;;5025925;28;20055;-63
2023/05/28 10:42:18;;;;;;;4.00;1.42;;;25.30;50.40;;;;;;5027179;28;20148;-62
2023/05/28 10:45:02;;;;;;;3.40;0.75;;;25.40;50.30;;;;;;5025023;28;20128;-65
2023/05/28 10:47:42;;;;;;;2.70;1.17;;;25.50;50.10;;;;;;5028594;28;20785;-63
2023/05/28 10:50:15;;;;;;;3.75;1.85;;;25.50;49.60;;;;;;5025527;28;20041;-67
2023/05/28 10:52:41;;;;;;;2.13;0.75;;;25.50;49.30;;;;;;5035534;28;20021;-69
2023/05/28 10:55:09;;;;;;;1.40;0.90;;;25.60;49.50;;;;;;5029471;28;20025;-63
2023/05/28 10:57:47;;;;;;;3.47;1.30;;;25.70;49.50;;;;;;5034233;28;20082;-63
2023/05/28 11:00:23;;;;;;;1.90;1.10;;;25.80;48.90;;;;;;5021540;28;20552;-66
2023/05/28 11:02:52;;;;;;;2.25;0.90;;;25.80;48.60;;;;;;5025272;28;20599;-65
2023/05/28 11:05:24;;;;;;;1.38;0.73;;;25.70;48.60;;;;;;5030624;28;20025;-66
2023/05/28 11:07:50;;;;;;;1.77;0.88;;;25.80;48.90;;;;;;5037626;28;20021;-66
2023/05/28 11:10:16;;;;;;;4.95;0.82;;;25.90;48.80;;;;;;5034102;28;20063;-63
2023/05/28 11:12:45;;;;;;;2.22;1.02;;;26.00;48.00;;;;;;5036698;28;20034;-66
2023/05/28 11:15:12;;;;;;;12.82;1.77;;;26.00;48.40;;;;;;5034045;28;20018;-64
2023/05/28 11:17:42;;;;;;;1.35;0.70;;;26.00;48.30;;;;;;5032605;28;20037;-63
2023/05/28 11:20:24;;;;;;;2.63;1.27;;;26.00;48.30;;;;;;5036641;28;20778;-66
2023/05/28 11:22:50;;;;;;;2.17;1.10;;;26.00;47.40;;;;;;5026920;28;20037;-66
2023/05/28 11:25:15;;;;;;;3.67;1.80;;;25.90;47.40;;;;;;5032573;28;20060;-66
2023/05/28 11:27:42;;;;;;;2.40;1.08;;;25.90;47.80;;;;;;5035612;28;20073;-66
2023/05/28 11:30:12;;;;;;;1.48;1.05;;;25.80;47.80;;;;;;5031837;28;20351;-67
2023/05/28 11:32:38;;;;;;;2.03;0.73;;;25.90;47.70;;;;;;5029580;28;20831;-68
2023/05/28 11:35:04;;;;;;;2.35;0.80;;;26.00;48.20;;;;;;5030971;28;20719;-67
2023/05/28 11:37:35;;;;;;;1.92;1.05;;;26.20;47.40;;;;;;5033698;28;20192;-67
2023/05/28 11:40:10;;;;;;;0.80;0.80;;;26.40;47.40;;;;;;5031135;28;20029;-67
2023/05/28 11:42:37;;;;;;;0.75;0.70;;;26.60;46.80;;;;;;5031962;28;20042;-67
2023/05/28 11:45:04;;;;;;;2.47;1.13;;;26.70;46.30;;;;;;5027898;28;20049;-67
2023/05/28 11:47:33;;;;;;;1.35;0.98;;;27.00;46.30;;;;;;5029991;28;20821;-67
2023/05/28 11:49:58;;;;;;;1.10;1.00;;;27.10;45.40;;;;;;5034373;28;20041;-67
2023/05/28 11:52:25;;;;;;;0.70;0.60;;;27.20;45.20;;;;;;5030810;28;20178;-66
2023/05/28 11:54:57;;;;;;;2.50;1.58;;;27.30;44.80;;;;;;5030008;28;20458;-66
2023/05/28 11:57:25;;;;;;;3.83;0.75;;;27.30;44.90;;;;;;5023544;28;20404;-65
2023/05/28 12:00:11;;;;;;;4.57;1.70;;;27.30;44.50;;;;;;5028917;28;20497;-66
2023/05/28 12:02:46;;;;;;;1.20;0.90;;;27.30;44.40;;;;;;5027523;28;20033;-66
2023/05/28 12:05:12;;;;;;;4.30;1.30;;;27.40;44.80;;;;;;5032114;28;20025;-66
2023/05/28 12:07:47;;;;;;;1.40;0.80;;;27.60;44.60;;;;;;5026483;28;20065;-66
2023/05/28 12:10:21;;;;;;;8.45;1.10;;;27.70;44.20;;;;;;5033963;28;20044;-66
2023/05/28 12:12:52;;;;;;;2.75;1.00;;;27.70;44.10;;;;;;5029013;28;20014;-66
2023/05/28 12:15:24;;;;;;;2.67;0.93;;;27.80;44.00;;;;;;5028387;28;20021;-68
2023/05/28 12:17:57;;;;;;;1.17;1.08;;;27.80;43.90;;;;;;5030267;28;20034;-67
2023/05/28 12:20:22;;;;;;;1.83;1.10;;;27.70;44.00;;;;;;5029276;28;20029;-67
2023/05/28 12:23:08;;;;;;;3.45;1.27;;;27.60;44.10;;;;;;5031907;28;20512;-67
2023/05/28 12:25:52;;;;;;;0.85;0.75;;;27.50;43.20;;;;;;5027357;28;20061;-67
2023/05/28 12:28:20;;;;;;;2.65;0.95;;;27.20;43.50;;;;;;5020639;28;20105;-67
2023/05/28 12:30:52;;;;;;;2.03;1.30;;;27.20;43.70;;;;;;5025164;28;20104;-68
2023/05/28 12:33:19;;;;;;;1.77;0.95;;;27.20;43.90;;;;;;5035419;28;20025;-67
2023/05/28 12:35:46;;;;;;;2.70;1.10;;;27.20;44.00;;;;;;5019976;28;20026;-66
2023/05/28 12:38:13;;;;;;;1.25;0.77;;;27.20;43.90;;;;;;5026501;28;20033;-65
2023/05/28 12:40:39;;;;;;;2.20;1.40;;;27.30;44.10;;;;;;5021112;28;20057;-66
2023/05/28 12:43:06;;;;;;;2.25;1.23;;;27.40;43.60;;;;;;5032013;28;20156;-66
2023/05/28 12:45:32;;;;;;;3.33;1.52;;;27.50;43.70;;;;;;5013884;28;20033;-66
2023/05/28 12:47:57;;;;;;;3.92;1.02;;;27.60;43.70;;;;;;5030100;28;20067;-68